sensor_id;sensor_type;location;lat;lon;timestamp;pressure;altitude;pressure_sealevel;temperature;humidity
33506;BME280;19843;51.040;13.782;2023-03-01T00:01:01;101759.56;;;-2.65;91.11
33506;BME280;19843;51.040;13.782;2023-03-01T00:03:29;101763.97;;;-2.62;91.33
33506;BME280;19843;51.040;13.782;2023-03-01T00:05:56;101770.09;;;-2.62;91.03
33506;BME280;19843;51.040;13.782;2023-03-01T00:08:24;101763.13;;;-2.58;90.29
33506;BME280;19843;51.040;13.782;2023-03-01T00:11:00;101764.88;;;-2.60;90.53
33506;BME280;19843;51.040;13.782;2023-03-01T00:13:29;101762.22;;;-2.63;90.00
33506;BME280;19843;51.040;13.782;2023-03-01T00:15:56;101762.13;;;-2.74;90.90
33506;BME280;19843;51.040;13.782;2023-03-01T00:18:24;101754.03;;;-2.96;91.75
33506;BME280;19843;51.040;13.782;2023-03-01T00:20:52;101758.31;;;-3.02;92.43
33506;BME280;19843;51.040;13.782;2023-03-01T00:23:21;101760.06;;;-3.04;92.98
33506;BME280;19843;51.040;13.782;2023-03-01T00:25:49;101768.88;;;-2.99;93.40
33506;BME280;19843;51.040;13.782;2023-03-01T00:28:17;101763.63;;;-2.99;93.33
33506;BME280;19843;51.040;13.782;2023-03-01T00:30:46;101762.94;;;-2.81;92.18
33506;BME280;19843;51.040;13.782;2023-03-01T00:33:14;101754.09;;;-2.89;91.78
33506;BME280;19843;51.040;13.782;2023-03-01T00:35:42;101762.69;;;-3.06;92.12
33506;BME280;19843;51.040;13.782;2023-03-01T00:38:09;101758.47;;;-2.90;92.04
33506;BME280;19843;51.040;13.782;2023-03-01T00:40:37;101757.59;;;-2.89;91.23
33506;BME280;19843;51.040;13.782;2023-03-01T00:43:04;101750.41;;;-3.07;91.28
33506;BME280;19843;51.040;13.782;2023-03-01T00:45:33;101748.53;;;-3.20;92.41
33506;BME280;19843;51.040;13.782;2023-03-01T00:48:01;101740.59;;;-3.26;92.45
33506;BME280;19843;51.040;13.782;2023-03-01T00:50:29;101743.22;;;-3.26;92.58
33506;BME280;19843;51.040;13.782;2023-03-01T00:52:56;101730.88;;;-3.35;92.84
33506;BME280;19843;51.040;13.782;2023-03-01T00:55:24;101731.63;;;-3.44;93.80
33506;BME280;19843;51.040;13.782;2023-03-01T00:57:51;101731.88;;;-3.24;94.02
33506;BME280;19843;51.040;13.782;2023-03-01T01:00:19;101739.00;;;-3.09;92.83
33506;BME280;19843;51.040;13.782;2023-03-01T01:02:47;101742.41;;;-3.19;92.82
33506;BME280;19843;51.040;13.782;2023-03-01T01:05:16;101736.28;;;-3.20;93.45
33506;BME280;19843;51.040;13.782;2023-03-01T01:07:47;101731.75;;;-3.34;93.35
33506;BME280;19843;51.040;13.782;2023-03-01T01:10:15;101734.38;;;-3.36;93.67
33506;BME280;19843;51.040;13.782;2023-03-01T01:12:44;101741.50;;;-3.21;93.39
33506;BME280;19843;51.040;13.782;2023-03-01T01:15:12;101737.06;;;-3.28;93.17
33506;BME280;19843;51.040;13.782;2023-03-01T01:17:42;101736.06;;;-3.40;93.13
33506;BME280;19843;51.040;13.782;2023-03-01T01:20:11;101737.03;;;-3.31;93.64
33506;BME280;19843;51.040;13.782;2023-03-01T01:22:39;101728.19;;;-3.40;93.56
33506;BME280;19843;51.040;13.782;2023-03-01T01:25:08;101731.66;;;-3.42;93.55
33506;BME280;19843;51.040;13.782;2023-03-01T01:27:35;101729.19;;;-3.28;93.62
33506;BME280;19843;51.040;13.782;2023-03-01T01:30:04;101729.16;;;-3.33;93.29
33506;BME280;19843;51.040;13.782;2023-03-01T01:32:32;101721.41;;;-3.21;93.10
33506;BME280;19843;51.040;13.782;2023-03-01T01:34:59;101720.41;;;-3.32;93.34
33506;BME280;19843;51.040;13.782;2023-03-01T01:37:27;101709.78;;;-3.44;93.30
33506;BME280;19843;51.040;13.782;2023-03-01T01:39:59;101715.09;;;-3.37;92.87
33506;BME280;19843;51.040;13.782;2023-03-01T01:42:27;101714.22;;;-3.37;94.01
33506;BME280;19843;51.040;13.782;2023-03-01T01:45:26;101712.53;;;-3.32;93.88
33506;BME280;19843;51.040;13.782;2023-03-01T01:47:56;101714.38;;;-3.23;92.98
33506;BME280;19843;51.040;13.782;2023-03-01T01:50:25;101716.03;;;-3.33;92.97
33506;BME280;19843;51.040;13.782;2023-03-01T01:52:53;101717.84;;;-3.26;92.54
33506;BME280;19843;51.040;13.782;2023-03-01T01:55:24;101719.56;;;-3.31;91.89
33506;BME280;19843;51.040;13.782;2023-03-01T01:57:56;101713.53;;;-3.21;92.05
33506;BME280;19843;51.040;13.782;2023-03-01T02:00:28;101709.72;;;-3.49;91.76
33506;BME280;19843;51.040;13.782;2023-03-01T02:02:57;101710.50;;;-3.58;92.47
33506;BME280;19843;51.040;13.782;2023-03-01T02:05:33;101713.03;;;-3.64;92.76
33506;BME280;19843;51.040;13.782;2023-03-01T02:08:03;101710.53;;;-3.56;93.35
33506;BME280;19843;51.040;13.782;2023-03-01T02:10:34;101706.34;;;-3.40;92.08
33506;BME280;19843;51.040;13.782;2023-03-01T02:13:03;101702.75;;;-3.45;91.76
33506;BME280;19843;51.040;13.782;2023-03-01T02:15:31;101706.13;;;-3.59;92.46
33506;BME280;19843;51.040;13.782;2023-03-01T02:18:01;101701.91;;;-3.47;92.67
33506;BME280;19843;51.040;13.782;2023-03-01T02:20:33;101699.38;;;-3.35;92.11
33506;BME280;19843;51.040;13.782;2023-03-01T02:23:01;101693.25;;;-3.37;91.69
33506;BME280;19843;51.040;13.782;2023-03-01T02:25:40;101674.84;;;-3.42;91.72
33506;BME280;19843;51.040;13.782;2023-03-01T02:28:22;101674.63;;;-3.63;92.35
33506;BME280;19843;51.040;13.782;2023-03-01T02:30:50;101675.38;;;-3.72;93.85
33506;BME280;19843;51.040;13.782;2023-03-01T02:33:37;101673.56;;;-3.79;94.60
33506;BME280;19843;51.040;13.782;2023-03-01T02:36:08;101677.88;;;-3.83;94.17
33506;BME280;19843;51.040;13.782;2023-03-01T02:38:37;101672.09;;;-3.52;93.84
33506;BME280;19843;51.040;13.782;2023-03-01T02:41:06;101670.09;;;-3.73;92.92
33506;BME280;19843;51.040;13.782;2023-03-01T02:43:36;101676.88;;;-3.92;93.27
33506;BME280;19843;51.040;13.782;2023-03-01T02:46:06;101680.41;;;-3.90;93.31
33506;BME280;19843;51.040;13.782;2023-03-01T02:48:42;101666.56;;;-3.77;92.66
33506;BME280;19843;51.040;13.782;2023-03-01T02:51:22;101666.34;;;-3.97;92.77
33506;BME280;19843;51.040;13.782;2023-03-01T02:53:56;101667.88;;;-4.13;93.51
33506;BME280;19843;51.040;13.782;2023-03-01T02:56:26;101666.97;;;-4.15;94.03
33506;BME280;19843;51.040;13.782;2023-03-01T02:58:55;101664.59;;;-3.96;93.81
33506;BME280;19843;51.040;13.782;2023-03-01T03:01:27;101658.63;;;-3.82;92.50
33506;BME280;19843;51.040;13.782;2023-03-01T03:04:04;101666.28;;;-4.00;92.47
33506;BME280;19843;51.040;13.782;2023-03-01T03:06:32;101663.38;;;-4.22;92.46
33506;BME280;19843;51.040;13.782;2023-03-01T03:09:00;101660.72;;;-4.25;93.13
33506;BME280;19843;51.040;13.782;2023-03-01T03:11:27;101667.63;;;-4.31;93.92
33506;BME280;19843;51.040;13.782;2023-03-01T03:13:57;101665.28;;;-4.10;95.44
33506;BME280;19843;51.040;13.782;2023-03-01T03:16:24;101657.50;;;-4.04;94.28
33506;BME280;19843;51.040;13.782;2023-03-01T03:18:52;101660.38;;;-3.85;92.73
33506;BME280;19843;51.040;13.782;2023-03-01T03:21:19;101656.66;;;-4.04;92.73
33506;BME280;19843;51.040;13.782;2023-03-01T03:23:46;101662.53;;;-4.19;92.58
33506;BME280;19843;51.040;13.782;2023-03-01T03:26:14;101645.38;;;-3.97;92.68
33506;BME280;19843;51.040;13.782;2023-03-01T03:28:41;101657.59;;;-3.96;92.65
33506;BME280;19843;51.040;13.782;2023-03-01T03:31:10;101647.94;;;-4.02;91.81
33506;BME280;19843;51.040;13.782;2023-03-01T03:33:38;101648.69;;;-4.09;92.03
33506;BME280;19843;51.040;13.782;2023-03-01T03:36:05;101656.25;;;-4.33;92.14
33506;BME280;19843;51.040;13.782;2023-03-01T03:38:38;101651.69;;;-4.47;92.74
33506;BME280;19843;51.040;13.782;2023-03-01T03:41:07;101649.28;;;-4.30;93.71
33506;BME280;19843;51.040;13.782;2023-03-01T03:43:37;101643.44;;;-4.12;92.87
33506;BME280;19843;51.040;13.782;2023-03-01T03:46:05;101644.13;;;-4.25;91.91
33506;BME280;19843;51.040;13.782;2023-03-01T03:48:34;101642.16;;;-4.42;92.50
33506;BME280;19843;51.040;13.782;2023-03-01T03:51:02;101646.44;;;-4.47;93.25
33506;BME280;19843;51.040;13.782;2023-03-01T03:53:32;101644.91;;;-4.32;92.75
33506;BME280;19843;51.040;13.782;2023-03-01T03:55:59;101639.06;;;-4.11;92.36
33506;BME280;19843;51.040;13.782;2023-03-01T03:58:27;101650.03;;;-4.38;92.21
33506;BME280;19843;51.040;13.782;2023-03-01T04:00:55;101648.19;;;-4.46;92.84
33506;BME280;19843;51.040;13.782;2023-03-01T04:03:24;101646.59;;;-4.37;92.88
33506;BME280;19843;51.040;13.782;2023-03-01T04:05:54;101650.31;;;-4.20;91.79
33506;BME280;19843;51.040;13.782;2023-03-01T04:08:24;101663.00;;;-4.49;91.94
33506;BME280;19843;51.040;13.782;2023-03-01T04:10:52;101664.69;;;-4.53;92.18
33506;BME280;19843;51.040;13.782;2023-03-01T04:13:22;101668.06;;;-4.60;92.36
33506;BME280;19843;51.040;13.782;2023-03-01T04:15:52;101662.84;;;-4.60;92.21
33506;BME280;19843;51.040;13.782;2023-03-01T04:18:21;101655.56;;;-4.78;92.90
33506;BME280;19843;51.040;13.782;2023-03-01T04:20:49;101663.69;;;-4.59;92.68
33506;BME280;19843;51.040;13.782;2023-03-01T04:23:20;101660.09;;;-4.66;92.43
33506;BME280;19843;51.040;13.782;2023-03-01T04:25:49;101647.91;;;-4.67;92.88
33506;BME280;19843;51.040;13.782;2023-03-01T04:28:21;101649.88;;;-4.51;92.60
33506;BME280;19843;51.040;13.782;2023-03-01T04:30:51;101652.50;;;-4.51;91.52
33506;BME280;19843;51.040;13.782;2023-03-01T04:33:19;101651.63;;;-4.50;91.21
33506;BME280;19843;51.040;13.782;2023-03-01T04:35:46;101643.56;;;-4.64;92.12
33506;BME280;19843;51.040;13.782;2023-03-01T04:38:16;101658.28;;;-4.70;92.56
33506;BME280;19843;51.040;13.782;2023-03-01T04:40:45;101654.13;;;-4.57;93.14
33506;BME280;19843;51.040;13.782;2023-03-01T04:43:12;101649.78;;;-4.57;93.17
33506;BME280;19843;51.040;13.782;2023-03-01T04:45:41;101646.25;;;-4.59;92.74
33506;BME280;19843;51.040;13.782;2023-03-01T04:48:09;101646.22;;;-4.62;92.54
33506;BME280;19843;51.040;13.782;2023-03-01T04:50:36;101654.03;;;-4.64;91.94
33506;BME280;19843;51.040;13.782;2023-03-01T04:53:04;101660.94;;;-4.69;91.91
33506;BME280;19843;51.040;13.782;2023-03-01T04:55:31;101654.88;;;-4.66;93.31
33506;BME280;19843;51.040;13.782;2023-03-01T04:58:00;101662.88;;;-4.58;93.36
33506;BME280;19843;51.040;13.782;2023-03-01T05:00:27;101668.97;;;-4.58;93.69
33506;BME280;19843;51.040;13.782;2023-03-01T05:02:56;101653.38;;;-4.52;93.49
33506;BME280;19843;51.040;13.782;2023-03-01T05:05:26;101655.78;;;-4.64;92.80
33506;BME280;19843;51.040;13.782;2023-03-01T05:07:56;101657.72;;;-4.51;93.22
33506;BME280;19843;51.040;13.782;2023-03-01T05:10:25;101657.69;;;-4.52;92.52
33506;BME280;19843;51.040;13.782;2023-03-01T05:12:55;101647.38;;;-4.42;92.61
33506;BME280;19843;51.040;13.782;2023-03-01T05:15:25;101650.78;;;-4.49;91.92
33506;BME280;19843;51.040;13.782;2023-03-01T05:17:53;101647.97;;;-4.61;93.02
33506;BME280;19843;51.040;13.782;2023-03-01T05:20:21;101646.94;;;-4.71;92.62
33506;BME280;19843;51.040;13.782;2023-03-01T05:22:50;101646.03;;;-4.73;93.31
33506;BME280;19843;51.040;13.782;2023-03-01T05:25:18;101648.72;;;-4.68;92.53
33506;BME280;19843;51.040;13.782;2023-03-01T05:27:47;101641.78;;;-4.68;92.70
33506;BME280;19843;51.040;13.782;2023-03-01T05:30:15;101637.50;;;-4.61;92.94
33506;BME280;19843;51.040;13.782;2023-03-01T05:32:46;101640.97;;;-4.62;92.09
33506;BME280;19843;51.040;13.782;2023-03-01T05:35:16;101641.56;;;-4.80;92.37
33506;BME280;19843;51.040;13.782;2023-03-01T05:37:46;101639.91;;;-4.75;92.35
33506;BME280;19843;51.040;13.782;2023-03-01T05:40:15;101634.38;;;-4.93;92.06
33506;BME280;19843;51.040;13.782;2023-03-01T05:42:43;101639.47;;;-5.03;92.97
33506;BME280;19843;51.040;13.782;2023-03-01T05:45:11;101634.47;;;-4.90;92.83
33506;BME280;19843;51.040;13.782;2023-03-01T05:47:43;101626.94;;;-4.67;92.11
33506;BME280;19843;51.040;13.782;2023-03-01T05:50:14;101630.50;;;-4.62;91.90
33506;BME280;19843;51.040;13.782;2023-03-01T05:52:46;101631.44;;;-4.57;91.39
33506;BME280;19843;51.040;13.782;2023-03-01T05:55:15;101632.22;;;-4.64;91.95
33506;BME280;19843;51.040;13.782;2023-03-01T05:57:43;101640.22;;;-4.56;91.81
33506;BME280;19843;51.040;13.782;2023-03-01T06:00:12;101639.31;;;-4.58;91.70
33506;BME280;19843;51.040;13.782;2023-03-01T06:02:40;101647.97;;;-4.63;91.81
33506;BME280;19843;51.040;13.782;2023-03-01T06:05:09;101647.16;;;-4.58;92.41
33506;BME280;19843;51.040;13.782;2023-03-01T06:07:39;101648.06;;;-4.55;92.01
33506;BME280;19843;51.040;13.782;2023-03-01T06:10:08;101641.91;;;-4.58;91.83
33506;BME280;19843;51.040;13.782;2023-03-01T06:12:38;101652.19;;;-4.71;92.79
33506;BME280;19843;51.040;13.782;2023-03-01T06:15:07;101644.50;;;-4.60;92.24
33506;BME280;19843;51.040;13.782;2023-03-01T06:17:37;101638.56;;;-4.48;91.91
33506;BME280;19843;51.040;13.782;2023-03-01T06:20:07;101644.75;;;-4.43;91.50
33506;BME280;19843;51.040;13.782;2023-03-01T06:22:35;101649.13;;;-4.42;91.58
33506;BME280;19843;51.040;13.782;2023-03-01T06:25:05;101641.50;;;-4.25;90.95
33506;BME280;19843;51.040;13.782;2023-03-01T06:27:33;101654.59;;;-4.25;89.97
33506;BME280;19843;51.040;13.782;2023-03-01T06:30:01;101651.97;;;-4.27;90.32
33506;BME280;19843;51.040;13.782;2023-03-01T06:32:28;101651.19;;;-4.18;90.60
33506;BME280;19843;51.040;13.782;2023-03-01T06:34:57;101653.19;;;-4.00;89.31
33506;BME280;19843;51.040;13.782;2023-03-01T06:37:25;101659.31;;;-3.98;89.60
33506;BME280;19843;51.040;13.782;2023-03-01T06:39:52;101658.63;;;-3.82;88.98
33506;BME280;19843;51.040;13.782;2023-03-01T06:42:21;101660.44;;;-3.79;88.78
33506;BME280;19843;51.040;13.782;2023-03-01T06:44:49;101666.78;;;-3.60;88.55
33506;BME280;19843;51.040;13.782;2023-03-01T06:47:16;101659.94;;;-3.47;87.46
33506;BME280;19843;51.040;13.782;2023-03-01T06:49:43;101663.44;;;-3.47;86.53
33506;BME280;19843;51.040;13.782;2023-03-01T06:52:11;101660.03;;;-3.35;85.99
33506;BME280;19843;51.040;13.782;2023-03-01T06:54:38;101665.19;;;-3.44;85.62
33506;BME280;19843;51.040;13.782;2023-03-01T06:57:06;101665.16;;;-3.49;85.94
33506;BME280;19843;51.040;13.782;2023-03-01T06:59:34;101654.72;;;-3.44;86.66
33506;BME280;19843;51.040;13.782;2023-03-01T07:02:02;101660.06;;;-3.32;86.14
33506;BME280;19843;51.040;13.782;2023-03-01T07:04:29;101657.50;;;-3.26;85.62
33506;BME280;19843;51.040;13.782;2023-03-01T07:06:57;101654.09;;;-3.20;85.94
33506;BME280;19843;51.040;13.782;2023-03-01T07:09:25;101651.66;;;-2.97;85.96
33506;BME280;19843;51.040;13.782;2023-03-01T07:11:52;101652.53;;;-2.97;85.52
33506;BME280;19843;51.040;13.782;2023-03-01T07:14:20;101653.41;;;-2.99;85.07
33506;BME280;19843;51.040;13.782;2023-03-01T07:16:48;101654.44;;;-2.79;84.70
33506;BME280;19843;51.040;13.782;2023-03-01T07:19:16;101653.59;;;-2.73;83.94
33506;BME280;19843;51.040;13.782;2023-03-01T07:21:43;101646.69;;;-2.60;84.30
33506;BME280;19843;51.040;13.782;2023-03-01T07:24:11;101638.09;;;-2.35;83.76
33506;BME280;19843;51.040;13.782;2023-03-01T07:26:38;101637.28;;;-2.24;83.02
33506;BME280;19843;51.040;13.782;2023-03-01T07:29:07;101639.16;;;-2.02;82.35
33506;BME280;19843;51.040;13.782;2023-03-01T07:31:34;101630.41;;;-1.92;81.26
33506;BME280;19843;51.040;13.782;2023-03-01T07:34:04;101631.38;;;-1.74;80.34
33506;BME280;19843;51.040;13.782;2023-03-01T07:36:31;101628.75;;;-1.66;79.71
33506;BME280;19843;51.040;13.782;2023-03-01T07:38:59;101630.53;;;-1.53;79.41
33506;BME280;19843;51.040;13.782;2023-03-01T07:41:28;101627.94;;;-1.30;79.58
33506;BME280;19843;51.040;13.782;2023-03-01T07:43:56;101627.97;;;-0.99;78.69
33506;BME280;19843;51.040;13.782;2023-03-01T07:46:23;101624.47;;;-1.17;77.70
33506;BME280;19843;51.040;13.782;2023-03-01T07:48:51;101627.09;;;-0.97;76.51
33506;BME280;19843;51.040;13.782;2023-03-01T07:51:19;101625.34;;;-0.86;76.63
33506;BME280;19843;51.040;13.782;2023-03-01T07:53:48;101625.34;;;-0.86;77.20
33506;BME280;19843;51.040;13.782;2023-03-01T07:56:16;101620.06;;;-0.82;77.04
33506;BME280;19843;51.040;13.782;2023-03-01T07:58:45;101623.56;;;-0.70;76.91
33506;BME280;19843;51.040;13.782;2023-03-01T08:01:17;101613.91;;;-0.65;75.85
33506;BME280;19843;51.040;13.782;2023-03-01T08:03:45;101613.91;;;-0.74;75.47
33506;BME280;19843;51.040;13.782;2023-03-01T08:06:15;101603.34;;;-0.43;75.54
33506;BME280;19843;51.040;13.782;2023-03-01T08:08:44;101591.00;;;-0.29;74.91
33506;BME280;19843;51.040;13.782;2023-03-01T08:11:13;101596.25;;;-0.29;74.44
33506;BME280;19843;51.040;13.782;2023-03-01T08:13:42;101591.81;;;-0.17;73.37
33506;BME280;19843;51.040;13.782;2023-03-01T08:16:11;101585.66;;;-0.16;74.07
33506;BME280;19843;51.040;13.782;2023-03-01T08:18:39;101590.03;;;-0.11;73.64
33506;BME280;19843;51.040;13.782;2023-03-01T08:21:09;101593.53;;;-0.12;75.18
33506;BME280;19843;51.040;13.782;2023-03-01T08:23:37;101588.19;;;0.08;73.33
33506;BME280;19843;51.040;13.782;2023-03-01T08:26:08;101590.78;;;0.20;72.69
33506;BME280;19843;51.040;13.782;2023-03-01T08:28:36;101595.09;;;0.32;73.35
33506;BME280;19843;51.040;13.782;2023-03-01T08:31:13;101588.84;;;0.50;72.61
33506;BME280;19843;51.040;13.782;2023-03-01T08:33:41;101583.69;;;0.27;71.49
33506;BME280;19843;51.040;13.782;2023-03-01T08:36:09;101584.44;;;0.51;71.01
33506;BME280;19843;51.040;13.782;2023-03-01T08:38:36;101588.09;;;0.30;71.93
33506;BME280;19843;51.040;13.782;2023-03-01T08:41:04;101580.91;;;0.52;72.10
33506;BME280;19843;51.040;13.782;2023-03-01T08:43:33;101577.38;;;0.51;71.29
33506;BME280;19843;51.040;13.782;2023-03-01T08:46:00;101583.38;;;0.78;70.42
33506;BME280;19843;51.040;13.782;2023-03-01T08:48:28;101576.06;;;1.08;69.87
33506;BME280;19843;51.040;13.782;2023-03-01T08:50:56;101572.34;;;1.30;68.95
33506;BME280;19843;51.040;13.782;2023-03-01T08:53:23;101566.09;;;1.39;69.82
33506;BME280;19843;51.040;13.782;2023-03-01T08:55:51;101572.38;;;1.24;68.38
33506;BME280;19843;51.040;13.782;2023-03-01T08:58:19;101578.63;;;1.18;69.17
33506;BME280;19843;51.040;13.782;2023-03-01T09:00:48;101577.47;;;1.42;69.69
33506;BME280;19843;51.040;13.782;2023-03-01T09:03:15;101582.56;;;1.64;68.85
33506;BME280;19843;51.040;13.782;2023-03-01T09:05:42;101568.47;;;1.62;67.02
33506;BME280;19843;51.040;13.782;2023-03-01T09:08:12;101567.66;;;1.57;68.25
33506;BME280;19843;51.040;13.782;2023-03-01T09:10:39;101568.31;;;1.76;67.87
33506;BME280;19843;51.040;13.782;2023-03-01T09:13:07;101556.50;;;2.03;67.19
33506;BME280;19843;51.040;13.782;2023-03-01T09:15:36;101552.66;;;2.25;65.60
33506;BME280;19843;51.040;13.782;2023-03-01T09:18:05;101543.34;;;1.97;66.22
33506;BME280;19843;51.040;13.782;2023-03-01T09:20:32;101537.06;;;2.05;67.13
33506;BME280;19843;51.040;13.782;2023-03-01T09:23:00;101528.72;;;2.35;68.85
33506;BME280;19843;51.040;13.782;2023-03-01T09:25:28;101527.63;;;2.46;65.62
33506;BME280;19843;51.040;13.782;2023-03-01T09:27:55;101518.38;;;2.74;65.30
33506;BME280;19843;51.040;13.782;2023-03-01T09:30:23;101516.34;;;2.34;64.72
33506;BME280;19843;51.040;13.782;2023-03-01T09:32:50;101521.72;;;2.29;65.45
33506;BME280;19843;51.040;13.782;2023-03-01T09:35:19;101516.06;;;2.52;66.26
33506;BME280;19843;51.040;13.782;2023-03-01T09:37:49;101513.88;;;2.79;65.98
33506;BME280;19843;51.040;13.782;2023-03-01T09:40:19;101506.69;;;2.84;67.24
33506;BME280;19843;51.040;13.782;2023-03-01T09:42:52;101517.63;;;3.15;65.94
33506;BME280;19843;51.040;13.782;2023-03-01T09:45:26;101527.09;;;3.30;62.21
33506;BME280;19843;51.040;13.782;2023-03-01T09:47:55;101523.56;;;3.29;62.25
33506;BME280;19843;51.040;13.782;2023-03-01T09:50:31;101525.38;;;3.26;63.81
33506;BME280;19843;51.040;13.782;2023-03-01T09:53:02;101514.81;;;3.68;62.09
33506;BME280;19843;51.040;13.782;2023-03-01T09:55:34;101508.44;;;3.78;63.93
33506;BME280;19843;51.040;13.782;2023-03-01T09:58:22;101513.44;;;3.92;60.81
33506;BME280;19843;51.040;13.782;2023-03-01T10:00:53;101509.28;;;3.80;61.64
33506;BME280;19843;51.040;13.782;2023-03-01T10:03:26;101503.50;;;3.14;62.84
33506;BME280;19843;51.040;13.782;2023-03-01T10:06:01;101510.72;;;3.54;63.09
33506;BME280;19843;51.040;13.782;2023-03-01T10:08:36;101508.22;;;3.87;62.06
33506;BME280;19843;51.040;13.782;2023-03-01T10:11:20;101503.34;;;4.08;62.25
33506;BME280;19843;51.040;13.782;2023-03-01T10:13:55;101512.56;;;4.30;60.93
33506;BME280;19843;51.040;13.782;2023-03-01T10:16:28;101513.78;;;4.54;62.16
33506;BME280;19843;51.040;13.782;2023-03-01T10:19:03;101512.63;;;4.65;60.36
33506;BME280;19843;51.040;13.782;2023-03-01T10:21:35;101506.94;;;4.80;60.74
33506;BME280;19843;51.040;13.782;2023-03-01T10:24:10;101512.16;;;4.83;59.52
33506;BME280;19843;51.040;13.782;2023-03-01T10:26:47;101509.00;;;5.03;58.78
33506;BME280;19843;51.040;13.782;2023-03-01T10:29:16;101501.19;;;5.30;58.34
33506;BME280;19843;51.040;13.782;2023-03-01T10:31:47;101498.94;;;5.16;58.13
33506;BME280;19843;51.040;13.782;2023-03-01T10:34:17;101496.06;;;5.22;58.77
33506;BME280;19843;51.040;13.782;2023-03-01T10:36:48;101489.34;;;5.41;58.78
33506;BME280;19843;51.040;13.782;2023-03-01T10:39:19;101496.19;;;5.50;57.49
33506;BME280;19843;51.040;13.782;2023-03-01T10:41:56;101487.22;;;5.54;57.50
33506;BME280;19843;51.040;13.782;2023-03-01T10:44:44;101485.69;;;5.46;57.21
33506;BME280;19843;51.040;13.782;2023-03-01T10:47:21;101481.75;;;5.28;57.20
33506;BME280;19843;51.040;13.782;2023-03-01T10:49:58;101484.88;;;5.42;56.62
33506;BME280;19843;51.040;13.782;2023-03-01T10:52:31;101472.59;;;5.38;56.05
33506;BME280;19843;51.040;13.782;2023-03-01T10:55:01;101473.34;;;5.10;56.21
33506;BME280;19843;51.040;13.782;2023-03-01T10:57:39;101463.44;;;5.17;56.36
33506;BME280;19843;51.040;13.782;2023-03-01T11:00:29;101459.31;;;5.05;55.63
33506;BME280;19843;51.040;13.782;2023-03-01T11:03:10;101460.31;;;5.34;56.46
33506;BME280;19843;51.040;13.782;2023-03-01T11:05:54;101459.50;;;5.61;55.63
33506;BME280;19843;51.040;13.782;2023-03-01T11:08:35;101451.66;;;5.57;53.96
33506;BME280;19843;51.040;13.782;2023-03-01T11:11:06;101444.44;;;5.60;53.72
33506;BME280;19843;51.040;13.782;2023-03-01T11:13:34;101443.16;;;5.74;53.21
33506;BME280;19843;51.040;13.782;2023-03-01T11:16:07;101437.97;;;5.99;54.64
33506;BME280;19843;51.040;13.782;2023-03-01T11:18:37;101428.06;;;5.74;52.58
33506;BME280;19843;51.040;13.782;2023-03-01T11:21:14;101438.13;;;5.94;53.21
33506;BME280;19843;51.040;13.782;2023-03-01T11:23:46;101437.94;;;5.71;52.05
33506;BME280;19843;51.040;13.782;2023-03-01T11:26:15;101435.56;;;5.61;53.13
33506;BME280;19843;51.040;13.782;2023-03-01T11:28:55;101443.69;;;5.85;53.13
33506;BME280;19843;51.040;13.782;2023-03-01T11:31:25;101438.13;;;5.94;51.47
33506;BME280;19843;51.040;13.782;2023-03-01T11:33:57;101431.50;;;6.07;51.95
33506;BME280;19843;51.040;13.782;2023-03-01T11:36:30;101433.88;;;5.87;50.71
33506;BME280;19843;51.040;13.782;2023-03-01T11:39:05;101435.13;;;6.05;49.22
33506;BME280;19843;51.040;13.782;2023-03-01T11:41:41;101431.59;;;6.04;49.68
33506;BME280;19843;51.040;13.782;2023-03-01T11:44:14;101430.06;;;6.24;50.68
33506;BME280;19843;51.040;13.782;2023-03-01T11:46:58;101427.06;;;6.35;51.09
33506;BME280;19843;51.040;13.782;2023-03-01T11:52:29;101423.94;;;6.48;49.59
33506;BME280;19843;51.040;13.782;2023-03-01T11:55:13;101425.34;;;6.34;48.19
33506;BME280;19843;51.040;13.782;2023-03-01T11:57:53;101427.81;;;6.12;46.94
33506;BME280;19843;51.040;13.782;2023-03-01T12:00:38;101418.78;;;5.88;47.47
33506;BME280;19843;51.040;13.782;2023-03-01T12:03:36;101419.13;;;6.06;48.96
33506;BME280;19843;51.040;13.782;2023-03-01T12:06:21;101418.59;;;6.22;47.93
33506;BME280;19843;51.040;13.782;2023-03-01T12:09:02;101418.03;;;6.12;47.50
33506;BME280;19843;51.040;13.782;2023-03-01T12:11:43;101408.56;;;6.30;48.50
33506;BME280;19843;51.040;13.782;2023-03-01T12:14:37;101402.88;;;6.14;48.17
33506;BME280;19843;51.040;13.782;2023-03-01T12:17:20;101408.81;;;5.96;47.71
33506;BME280;19843;51.040;13.782;2023-03-01T12:20:05;101411.63;;;5.90;49.04
33506;BME280;19843;51.040;13.782;2023-03-01T12:22:49;101406.75;;;5.74;49.59
33506;BME280;19843;51.040;13.782;2023-03-01T12:25:24;101406.44;;;5.85;50.68
33506;BME280;19843;51.040;13.782;2023-03-01T12:31:05;101398.56;;;5.82;50.14
33506;BME280;19843;51.040;13.782;2023-03-01T12:33:45;101393.13;;;5.85;49.74
33506;BME280;19843;51.040;13.782;2023-03-01T12:36:31;101387.63;;;5.91;51.05
33506;BME280;19843;51.040;13.782;2023-03-01T12:39:14;101387.59;;;5.93;50.93
33506;BME280;19843;51.040;13.782;2023-03-01T12:41:55;101384.81;;;5.97;51.09
33506;BME280;19843;51.040;13.782;2023-03-01T12:44:47;101374.53;;;5.83;51.51
33506;BME280;19843;51.040;13.782;2023-03-01T12:47:35;101377.88;;;5.90;52.26
33506;BME280;19843;51.040;13.782;2023-03-01T12:50:13;101392.13;;;5.89;52.36
33506;BME280;19843;51.040;13.782;2023-03-01T12:52:46;101390.59;;;5.52;52.56
33506;BME280;19843;51.040;13.782;2023-03-01T12:55:24;101381.69;;;5.53;52.75
33506;BME280;19843;51.040;13.782;2023-03-01T12:57:59;101376.06;;;5.64;52.54
33506;BME280;19843;51.040;13.782;2023-03-01T13:00:32;101374.28;;;5.63;52.74
33506;BME280;19843;51.040;13.782;2023-03-01T13:03:11;101368.47;;;5.80;52.77
33506;BME280;19843;51.040;13.782;2023-03-01T13:05:43;101358.38;;;5.90;52.08
33506;BME280;19843;51.040;13.782;2023-03-01T13:08:16;101361.97;;;5.89;51.87